Time;durP1;ratioP1;P1;durP2;ratioP2;P2;SDS_P1;SDS_P2;PMS_P1;PMS_P2;Temp;Humidity;BMP_temperature;BMP_pressure;BME280_temperature;BME280_humidity;BME280_pressure;Samples;Min_cycle;Max_cycle;Signal;HPM_P1;HPM_P2
2023/03/10 00:02:03;;;;;;;7.13;4.80;;;;;;;6.62;100.00;98553.09;6212588;23;20001;-88
2023/03/10 00:04:28;;;;;;;7.40;4.68;;;;;;;6.46;100.00;98533.03;6210523;23;20004;-86
2023/03/10 00:06:54;;;;;;;10.98;5.18;;;;;;;6.55;100.00;98557.13;6213000;23;20079;-88
2023/03/10 00:09:19;;;;;;;10.63;5.30;;;;;;;6.44;100.00;98536.75;6216496;23;20011;-88
2023/03/10 00:11:45;;;;;;;13.88;5.63;;;;;;;6.44;100.00;98552.63;6221384;23;20104;-94
2023/03/10 00:14:10;;;;;;;12.50;6.18;;;;;;;6.47;100.00;98550.56;6220742;23;20005;-94
2023/03/10 00:29:28;;;;;;;17.85;9.93;;;;;;;6.29;100.00;98500.84;6196443;23;20021;-90
2023/03/10 00:31:53;;;;;;;21.75;11.30;;;;;;;6.12;100.00;98480.91;6190580;23;20032;-88
2023/03/10 00:34:18;;;;;;;21.63;12.05;;;;;;;6.11;100.00;98480.06;6203035;23;20029;-91
2023/03/10 00:36:44;;;;;;;22.45;12.68;;;;;;;6.47;100.00;98547.09;6208345;23;19993;-89
2023/03/10 00:39:10;;;;;;;19.52;11.05;;;;;;;6.42;100.00;98547.41;6206806;23;20005;-89
2023/03/10 00:41:37;;;;;;;19.30;10.45;;;;;;;6.43;100.00;98558.81;6205032;23;20016;-85
2023/03/10 00:44:04;;;;;;;22.63;12.05;;;;;;;6.39;100.00;98547.63;6203993;23;20017;-87
2023/03/10 00:46:32;;;;;;;22.52;12.35;;;;;;;6.47;100.00;98553.22;6197312;23;20005;-90
2023/03/10 00:48:57;;;;;;;21.80;12.05;;;;;;;6.52;100.00;98565.25;6188937;23;20564;-89
2023/03/10 00:51:23;;;;;;;18.13;11.15;;;;;;;6.54;100.00;98556.28;6187643;23;20013;-88
2023/03/10 00:53:49;;;;;;;20.05;11.50;;;;;;;6.58;100.00;98552.47;6186822;23;20419;-87
2023/03/10 00:56:23;;;;;;;23.08;12.40;;;;;;;6.65;100.00;98564.31;6183381;23;20017;-87
2023/03/10 00:58:53;;;;;;;23.75;13.77;;;;;;;6.57;100.00;98542.00;6181026;23;20005;-88
2023/03/10 01:01:21;;;;;;;24.63;13.90;;;;;;;6.65;100.00;98555.53;6182409;23;20013;-88
2023/03/10 01:03:49;;;;;;;25.05;14.30;;;;;;;6.71;100.00;98566.50;6182540;23;20005;-89
2023/03/10 01:06:15;;;;;;;30.42;15.45;;;;;;;6.79;100.00;98554.53;6184832;23;20494;-88
2023/03/10 01:08:40;;;;;;;29.00;15.52;;;;;;;6.78;100.00;98558.97;6182666;23;20005;-88
2023/03/10 01:11:06;;;;;;;28.75;15.73;;;;;;;6.85;100.00;98548.78;6182054;23;20016;-88
2023/03/10 01:13:31;;;;;;;29.45;16.65;;;;;;;6.84;100.00;98544.47;6181480;23;20008;-87
2023/03/10 01:15:57;;;;;;;31.25;16.98;;;;;;;6.83;100.00;98540.97;6180384;23;20087;-87
2023/03/10 01:18:22;;;;;;;31.38;17.00;;;;;;;6.88;100.00;98549.41;6179032;23;20013;-88
2023/03/10 01:20:48;;;;;;;36.05;17.92;;;;;;;6.90;100.00;98541.41;6153961;23;20024;-88
2023/03/10 01:23:24;;;;;;;27.95;17.08;;;;;;;6.89;100.00;98529.94;6181749;23;20001;-88
2023/03/10 01:25:50;;;;;;;34.80;18.23;;;;;;;6.91;100.00;98541.28;6181386;23;20017;-88
2023/03/10 01:28:16;;;;;;;35.70;18.60;;;;;;;6.89;100.00;98524.66;6155613;23;20067;-88
2023/03/10 01:30:42;;;;;;;34.28;18.45;;;;;;;6.95;100.00;98537.47;6180496;23;20005;-87
2023/03/10 01:33:08;;;;;;;30.63;17.85;;;;;;;6.98;100.00;98534.59;6182150;23;20005;-88
2023/03/10 01:35:34;;;;;;;29.88;18.15;;;;;;;7.02;100.00;98531.69;6180490;23;20364;-88
2023/03/10 01:37:59;;;;;;;30.63;17.90;;;;;;;7.01;100.00;98516.78;6179296;23;20089;-88
2023/03/10 01:40:25;;;;;;;31.67;18.65;;;;;;;6.99;100.00;98523.06;6183863;23;20035;-86
2023/03/10 01:42:51;;;;;;;31.73;17.27;;;;;;;6.99;100.00;98528.34;6191337;23;20053;-87
2023/03/10 01:45:17;;;;;;;29.30;17.48;;;;;;;7.08;100.00;98523.34;6191653;23;20500;-88
2023/03/10 02:56:09;;;;;;;25.10;13.05;;;;;;;6.58;100.00;98408.91;6145386;23;20033;-87
2023/03/10 02:59:17;;;;;;;;;;;;;;;;;;;;;
2023/03/10 03:05:44;;;;;;;21.98;11.38;;;;;;;6.67;100.00;98439.94;6089463;23;20037;-86
2023/03/10 03:08:24;;;;;;;22.60;11.52;;;;;;;6.41;100.00;98403.06;6075792;23;20046;-86
2023/03/10 03:11:28;;;;;;;;;;;;;;;;;;;;;
2023/03/10 03:14:06;;;;;;;20.83;11.63;;;;;;;6.40;100.00;98406.66;6089195;23;20392;-87
2023/03/10 03:16:53;;;;;;;;;;;;;;;;;;;;;
2023/03/10 03:19:57;;;;;;;;;;;;;;;;;;;;;
2023/03/10 03:22:33;;;;;;;29.73;12.93;;;;;;;6.41;100.00;98404.84;6088459;23;20085;-88
2023/03/10 03:28:12;;;;;;;24.80;13.98;;;;;;;6.68;100.00;98428.41;6081283;23;20022;-87
2023/03/10 03:31:00;;;;;;;26.50;13.73;;;;;;;6.33;100.00;98370.22;6090704;23;20010;-86
2023/03/10 03:33:48;;;;;;;23.90;13.10;;;;;;;6.62;100.00;98419.13;6091474;23;20044;-87
2023/03/10 03:36:24;;;;;;;29.15;13.82;;;;;;;6.44;100.00;98400.19;6089185;23;20017;-87
2023/03/10 03:39:01;;;;;;;28.60;14.57;;;;;;;6.57;100.00;98417.78;6089131;23;20424;-87
2023/03/10 03:41:38;;;;;;;26.85;14.68;;;;;;;6.33;100.00;98384.28;6130384;23;20088;-87
2023/03/10 03:44:32;;;;;;;24.95;12.85;;;;;;;6.42;100.00;98383.59;6178851;23;20013;-85
2023/03/10 03:46:58;;;;;;;25.08;13.07;;;;;;;6.39;100.00;98373.25;6180039;23;20023;-88
2023/03/10 03:49:32;;;;;;;23.67;12.80;;;;;;;6.82;100.00;98441.47;6180199;23;20017;-86
2023/03/10 03:52:29;;;;;;;25.27;13.15;;;;;;;6.52;100.00;98377.63;6152844;23;20009;-86
2023/03/10 03:54:54;;;;;;;25.35;14.30;;;;;;;6.44;100.00;98371.13;6179917;23;20080;-88
2023/03/10 03:57:22;;;;;;;27.50;14.13;;;;;;;6.48;100.00;98375.22;6177787;23;20052;-88
2023/03/10 03:59:55;;;;;;;31.40;14.07;;;;;;;6.53;100.00;98374.06;6179136;23;20013;-88
2023/03/10 04:02:58;;;;;;;23.58;14.13;;;;;;;6.59;100.00;98385.00;6180685;23;20067;-87
2023/03/10 04:05:35;;;;;;;26.73;14.60;;;;;;;6.59;100.00;98371.78;6146233;23;20100;-86
2023/03/10 04:08:05;;;;;;;31.92;16.33;;;;;;;6.60;100.00;98377.91;6190833;23;20031;-87
2023/03/10 04:11:03;;;;;;;29.45;15.40;;;;;;;6.62;100.00;98379.50;6190259;23;20094;-86
2023/03/10 04:13:49;;;;;;;25.95;11.52;;;;;;;6.50;100.00;98367.19;6193022;23;20033;-86
2023/03/10 04:16:34;;;;;;;30.70;11.73;;;;;;;6.49;100.00;98384.00;6196616;23;20024;-87
2023/03/10 04:19:06;;;;;;;20.13;9.85;;;;;;;6.53;100.00;98392.56;6200370;23;20009;-87
2023/03/10 04:21:50;;;;;;;25.48;11.82;;;;;;;6.61;100.00;98421.91;6198934;23;20016;-85
2023/03/10 04:24:23;;;;;;;27.58;10.50;;;;;;;6.27;100.00;98349.50;6201292;23;20011;-87
2023/03/10 04:27:10;;;;;;;23.73;10.85;;;;;;;6.36;100.00;98368.19;6199722;23;20005;-87
2023/03/10 04:30:10;;;;;;;24.75;10.75;;;;;;;6.19;100.00;98345.66;6198422;23;20009;-86
2023/03/10 04:36:21;;;;;;;25.58;10.15;;;;;;;6.18;100.00;98358.94;6105542;23;20037;-85
2023/03/10 04:43:00;;;;;;;29.27;10.95;;;;;;;6.43;100.00;98401.13;6144914;23;20028;-87
2023/03/10 04:48:59;;;;;;;24.10;8.23;;;;;;;6.08;100.00;98340.31;6167828;23;20013;-87
2023/03/10 04:54:52;;;;;;;24.70;8.93;;;;;;;6.16;100.00;98363.50;6174624;23;20036;-87
2023/03/10 04:57:23;;;;;;;22.98;8.85;;;;;;;6.35;100.00;98381.50;6182090;23;20056;-85
2023/03/10 05:00:01;;;;;;;24.13;8.13;;;;;;;6.06;100.00;98333.44;6183195;23;20005;-87
2023/03/10 05:02:34;;;;;;;28.60;9.02;;;;;;;6.24;100.00;98356.72;6184449;23;20009;-86
2023/03/10 05:05:12;;;;;;;25.13;9.30;;;;;;;6.13;100.00;98338.16;6177755;23;20004;-86
2023/03/10 05:07:43;;;;;;;25.15;8.55;;;;;;;6.35;100.00;98360.38;6178657;23;20038;-88
2023/03/10 05:10:40;;;;;;;25.58;8.60;;;;;;;6.40;100.00;98380.22;6182940;23;20411;-87
2023/03/10 05:13:25;;;;;;;27.67;9.55;;;;;;;6.16;100.00;98335.31;6155678;23;20040;-87
2023/03/10 05:15:53;;;;;;;28.65;9.00;;;;;;;6.34;100.00;98361.34;6183346;23;20004;-86
2023/03/10 05:18:42;;;;;;;28.33;9.90;;;;;;;6.17;100.00;98346.72;6184204;23;20001;-86
2023/03/10 05:21:32;;;;;;;23.80;10.20;;;;;;;6.39;100.00;98386.44;6187183;23;20044;-87
2023/03/10 05:24:29;;;;;;;;;;;;;;;;;;;;;
2023/03/10 05:27:23;;;;;;;29.98;10.55;;;;;;;6.32;100.00;98402.88;6186597;23;20020;-88
2023/03/10 05:29:53;;;;;;;27.88;9.93;;;;;;;5.98;100.00;98340.13;6183369;23;20013;-88
2023/03/10 05:32:36;;;;;;;26.10;10.02;;;;;;;6.11;100.00;98350.66;6183720;23;20079;-88
2023/03/10 05:35:11;;;;;;;26.13;10.10;;;;;;;6.03;100.00;98331.03;6181177;23;20009;-86
2023/03/10 05:38:13;;;;;;;;;;;;;;;;;;;;;
2023/03/10 05:41:24;;;;;;;25.33;9.52;;;;;;;6.04;100.00;98320.34;6172474;23;20107;-86
2023/03/10 05:43:58;;;;;;;22.60;8.40;;;;;;;6.31;100.00;98353.63;6151333;23;20440;-86
2023/03/10 05:46:24;;;;;;;24.25;8.43;;;;;;;6.21;100.00;98345.53;6177568;23;20032;-87
2023/03/10 05:49:01;;;;;;;26.23;9.02;;;;;;;6.39;100.00;98365.31;6177343;23;20032;-88
2023/03/10 05:51:32;;;;;;;24.75;8.38;;;;;;;6.57;100.00;98391.38;6150993;23;20005;-87
2023/03/10 05:53:59;;;;;;;23.80;8.68;;;;;;;6.42;100.00;98367.75;6178595;23;20068;-87
2023/03/10 05:56:25;;;;;;;25.73;8.38;;;;;;;6.31;100.00;98357.13;6176902;23;20048;-88
2023/03/10 05:59:05;;;;;;;25.67;9.00;;;;;;;6.23;100.00;98333.06;6177739;23;20013;-87
2023/03/10 06:01:36;;;;;;;25.23;8.38;;;;;;;6.58;100.00;98393.03;6150605;23;20292;-87
2023/03/10 06:04:13;;;;;;;26.90;8.98;;;;;;;6.28;100.00;98332.72;6177788;23;20009;-87
2023/03/10 06:06:49;;;;;;;;;;;;;;;;;;;;;
2023/03/10 06:10:10;;;;;;;25.80;8.98;;;;;;;6.28;100.00;98332.72;6178544;23;20515;-87
2023/03/10 06:16:07;;;;;;;34.40;9.07;;;;;;;6.26;100.00;98330.19;6169745;23;20032;-87
2023/03/10 06:18:54;;;;;;;25.77;8.57;;;;;;;6.60;100.00;98386.69;6180159;23;20084;-87
2023/03/10 06:21:46;;;;;;;33.13;9.25;;;;;;;6.68;100.00;98399.34;6181619;23;20087;-87
2023/03/10 06:24:11;;;;;;;24.63;7.55;;;;;;;6.32;100.00;98342.97;6179425;23;20005;-86
2023/03/10 06:27:02;;;;;;;24.70;8.57;;;;;;;6.30;100.00;98329.00;6174881;23;20012;-86
2023/03/10 06:29:48;;;;;;;23.20;7.53;;;;;;;6.48;100.00;98367.31;6204894;23;20012;-88
2023/03/10 06:32:19;;;;;;;20.80;7.80;;;;;;;6.49;100.00;98362.84;6205244;23;20019;-88
2023/03/10 06:35:03;;;;;;;27.27;7.35;;;;;;;6.57;100.00;98386.09;6199477;23;20012;-88
2023/03/10 06:37:57;;;;;;;27.05;7.63;;;;;;;6.35;100.00;98348.00;6200201;23;20016;-88
2023/03/10 06:40:23;;;;;;;24.70;7.63;;;;;;;6.45;100.00;98362.25;6200026;23;20013;-86
2023/03/10 06:42:48;;;;;;;22.90;7.07;;;;;;;6.47;100.00;98364.75;6199275;23;20064;-86
2023/03/10 06:45:16;;;;;;;25.52;6.85;;;;;;;6.40;100.00;98367.03;6195916;23;20408;-87
2023/03/10 06:47:53;;;;;;;28.05;6.95;;;;;;;6.56;100.00;98385.22;6181336;23;20009;-88
2023/03/10 06:50:19;;;;;;;23.00;7.43;;;;;;;6.38;100.00;98368.91;6155286;23;20001;-88
2023/03/10 06:52:49;;;;;;;25.35;7.15;;;;;;;6.58;100.00;98401.81;6180746;23;20416;-87
2023/03/10 06:55:15;;;;;;;26.00;7.05;;;;;;;6.48;100.00;98383.16;6181420;23;20001;-89
2023/03/10 06:57:41;;;;;;;28.00;7.63;;;;;;;6.52;100.00;98386.44;6180232;23;20423;-85
2023/03/10 07:00:10;;;;;;;21.60;7.28;;;;;;;6.33;100.00;98357.84;6180091;23;20075;-86
2023/03/10 07:02:37;;;;;;;21.65;7.65;;;;;;;6.66;100.00;98409.19;6179498;23;20009;-85
2023/03/10 07:05:04;;;;;;;23.63;7.15;;;;;;;6.59;100.00;98386.81;6179847;23;20427;-84
2023/03/10 07:07:29;;;;;;;22.38;6.97;;;;;;;6.41;100.00;98362.56;6178619;23;20016;-85
2023/03/10 07:09:56;;;;;;;22.38;7.10;;;;;;;6.55;100.00;98377.41;6179844;23;20407;-85
2023/03/10 07:12:23;;;;;;;29.45;7.22;;;;;;;6.88;100.00;98422.50;6177320;23;20076;-85
2023/03/10 07:14:49;;;;;;;22.88;6.72;;;;;;;6.54;100.00;98366.00;6177610;23;20005;-84
2023/03/10 07:17:14;;;;;;;26.52;7.55;;;;;;;6.84;100.00;98399.03;6180421;23;20423;-86
2023/03/10 07:19:40;;;;;;;22.70;8.02;;;;;;;6.65;100.00;98363.41;6179692;23;20001;-85
2023/03/10 07:22:05;;;;;;;23.15;7.60;;;;;;;6.92;100.00;98407.25;6177867;23;20005;-86
2023/03/10 07:24:30;;;;;;;20.60;7.00;;;;;;;7.10;100.00;98431.47;6177430;23;20474;-86
2023/03/10 07:26:59;;;;;;;18.10;6.10;;;;;;;6.57;100.00;98360.50;6179548;23;20044;-86
2023/03/10 07:29:24;;;;;;;18.15;5.55;;;;;;;6.69;100.00;98390.47;6179529;23;20001;-85
2023/03/10 07:31:49;;;;;;;19.63;6.60;;;;;;;6.87;100.00;98412.03;6177194;23;20017;-85
2023/03/10 07:34:15;;;;;;;20.08;5.47;;;;;;;6.88;100.00;98419.84;6178445;23;20001;-85
2023/03/10 07:36:40;;;;;;;16.67;5.95;;;;;;;7.11;100.00;98443.75;6178153;23;20005;-85
2023/03/10 07:39:06;;;;;;;14.52;4.93;;;;;;;7.16;100.00;98442.44;6180001;23;20004;-86
2023/03/10 07:41:31;;;;;;;15.73;5.38;;;;;;;7.10;100.00;98419.09;6179335;23;20012;-86
2023/03/10 07:43:56;;;;;;;12.52;4.72;;;;;;;7.30;100.00;98443.22;6178075;23;20317;-86
2023/03/10 07:46:22;;;;;;;13.43;4.57;;;;;;;7.35;100.00;98431.31;6178029;23;20009;-86
2023/03/10 07:48:47;;;;;;;15.63;4.80;;;;;;;7.18;100.00;98389.41;6177590;23;20008;-85
2023/03/10 07:51:13;;;;;;;15.40;4.88;;;;;;;7.34;100.00;98391.75;6180249;23;20016;-87
2023/03/10 07:53:38;;;;;;;13.48;4.53;;;;;;;7.50;100.00;98397.53;6178827;23;20008;-85
2023/03/10 07:56:09;;;;;;;13.88;4.90;;;;;;;7.43;100.00;98386.56;6178418;23;20458;-84
2023/03/10 07:58:35;;;;;;;10.02;3.63;;;;;;;7.68;100.00;98427.88;6176891;23;20047;-86
2023/03/10 08:01:00;;;;;;;13.25;4.35;;;;;;;7.44;100.00;98385.63;6181394;23;20579;-85
2023/03/10 08:03:30;;;;;;;11.05;3.83;;;;;;;7.42;100.00;98398.13;6186129;23;20008;-83
2023/03/10 08:05:58;;;;;;;12.50;4.13;;;;;;;7.41;100.00;98393.81;6184414;23;20055;-84
2023/03/10 08:08:24;;;;;;;12.07;4.00;;;;;;;7.58;100.00;98432.22;6158511;23;20004;-84
2023/03/10 08:10:58;;;;;;;11.10;3.83;;;;;;;7.70;100.00;98449.78;6188657;23;20157;-87
2023/03/10 08:13:23;;;;;;;14.88;4.20;;;;;;;7.39;100.00;98382.47;6192373;23;20005;-86
2023/03/10 08:15:48;;;;;;;12.95;3.90;;;;;;;7.47;100.00;98382.72;6151788;23;20043;-88
2023/03/10 08:18:14;;;;;;;14.32;4.00;;;;;;;7.69;100.00;98418.13;6178967;23;20386;-86
2023/03/10 08:20:39;;;;;;;12.05;4.18;;;;;;;7.78;100.00;98427.19;6178139;23;20079;-86
2023/03/10 08:23:05;;;;;;;12.30;3.88;;;;;;;7.97;100.00;98425.59;6179407;23;20009;-86
2023/03/10 08:25:30;;;;;;;12.45;4.18;;;;;;;8.02;100.00;98421.75;6178482;23;20004;-86
2023/03/10 08:27:56;;;;;;;12.10;4.00;;;;;;;7.84;100.00;98390.47;6177522;23;20005;-87
2023/03/10 08:30:21;;;;;;;10.18;3.78;;;;;;;8.18;100.00;98411.63;6179144;23;20313;-87
2023/03/10 08:32:47;;;;;;;11.05;3.72;;;;;;;8.53;100.00;98427.41;6175393;23;20013;-85
2023/03/10 08:35:15;;;;;;;12.35;4.38;;;;;;;8.79;100.00;98427.91;6177477;23;20055;-86
2023/03/10 08:37:47;;;;;;;12.60;4.40;;;;;;;8.85;100.00;98424.75;6180481;23;20016;-87
2023/03/10 08:40:13;;;;;;;13.50;4.03;;;;;;;9.31;100.00;98434.19;6162386;23;20009;-85
2023/03/10 08:42:39;;;;;;;8.10;3.38;;;;;;;9.16;100.00;98401.84;6202209;23;20009;-85
2023/03/10 08:45:07;;;;;;;13.38;3.70;;;;;;;9.03;100.00;98400.31;6202389;23;20008;-86
2023/03/10 08:47:33;;;;;;;11.18;3.83;;;;;;;9.29;100.00;98406.13;6199125;23;20009;-85
2023/03/10 08:50:02;;;;;;;13.43;4.35;;;;;;;9.61;100.00;98393.56;6192195;23;20427;-88
2023/03/10 08:52:27;;;;;;;11.77;3.55;;;;;;;9.84;100.00;98402.22;6194533;23;20005;-87
2023/03/10 08:54:53;;;;;;;12.18;3.88;;;;;;;9.71;100.00;98393.66;6187428;23;20008;-87
2023/03/10 08:57:18;;;;;;;8.88;4.20;;;;;;;9.65;100.00;98413.59;6193904;23;20104;-86
2023/03/10 08:59:44;;;;;;;16.65;4.63;;;;;;;9.74;100.00;98438.53;6194866;23;20001;-84
2023/03/10 09:02:14;;;;;;;11.23;3.35;;;;;;;9.92;100.00;98438.78;6195476;23;20009;-86
2023/03/10 09:04:40;;;;;;;13.27;4.07;;;;;;;9.94;100.00;98442.13;6153569;23;20008;-86
2023/03/10 09:07:05;;;;;;;13.07;3.78;;;;;;;9.81;100.00;98447.66;6181036;23;20013;-86
2023/03/10 09:09:31;;;;;;;12.50;4.57;;;;;;;9.82;100.00;98453.81;6177465;23;20060;-87
2023/03/10 09:11:56;;;;;;;11.02;4.35;;;;;;;9.58;100.00;98424.88;6178456;23;20162;-87
2023/03/10 09:14:22;;;;;;;11.90;4.53;;;;;;;9.59;100.00;98437.19;6179258;23;20004;-87
2023/03/10 09:16:47;;;;;;;12.95;4.80;;;;;;;9.40;100.00;98409.53;6179065;23;20067;-85
2023/03/10 09:19:12;;;;;;;11.52;4.47;;;;;;;9.35;100.00;98417.03;6180355;23;20443;-85
2023/03/10 09:21:38;;;;;;;11.18;4.15;;;;;;;9.26;100.00;98420.47;6178640;23;20335;-85
2023/03/10 09:24:04;;;;;;;15.88;5.20;;;;;;;9.42;100.00;98436.81;6178199;23;20025;-85
2023/03/10 09:26:30;;;;;;;13.68;4.53;;;;;;;9.46;100.00;98437.38;6151141;23;20096;-85
2023/03/10 09:28:55;;;;;;;12.15;4.55;;;;;;;9.23;100.00;98394.19;6177339;23;20039;-85
2023/03/10 09:31:27;;;;;;;12.90;4.63;;;;;;;9.28;100.00;98421.22;6178767;23;20455;-88
2023/03/10 09:33:52;;;;;;;17.38;4.65;;;;;;;9.42;100.00;98458.03;6177481;23;20136;-86
2023/03/10 09:36:18;;;;;;;13.05;5.00;;;;;;;8.92;100.00;98414.50;6177722;23;20028;-86
2023/03/10 09:38:43;;;;;;;13.27;4.60;;;;;;;8.51;100.00;98400.16;6176258;23;20009;-86
2023/03/10 09:41:27;;;;;;;13.57;4.47;;;;;;;8.68;100.00;98459.75;6177529;23;20009;-86
2023/03/10 09:44:21;;;;;;;10.93;5.05;;;;;;;8.36;100.00;98417.25;6177292;23;20161;-84
2023/03/10 09:47:16;;;;;;;12.65;5.20;;;;;;;8.63;100.00;98464.59;6147828;23;20046;-86
2023/03/10 09:49:53;;;;;;;11.85;4.60;;;;;;;8.72;100.00;98461.22;6176230;23;20013;-84
2023/03/10 09:52:45;;;;;;;10.73;4.10;;;;;;;8.69;100.00;98466.75;6175375;23;20039;-86
2023/03/10 09:55:19;;;;;;;11.02;3.85;;;;;;;8.21;100.00;98411.38;6176786;23;20640;-85
2023/03/10 09:57:48;;;;;;;9.05;3.60;;;;;;;8.36;100.00;98444.63;6174483;23;20427;-85
2023/03/10 10:00:21;;;;;;;11.57;3.83;;;;;;;8.32;100.00;98429.06;6173974;23;20023;-86
2023/03/10 10:02:50;;;;;;;12.32;3.95;;;;;;;8.38;100.00;98434.75;6173211;23;20296;-84
2023/03/10 10:05:24;;;;;;;12.23;4.15;;;;;;;8.53;100.00;98445.97;6172457;23;20343;-84
2023/03/10 10:07:55;;;;;;;11.55;3.97;;;;;;;8.24;100.00;98429.69;6171107;23;20534;-85
2023/03/10 10:10:35;;;;;;;11.32;4.03;;;;;;;8.19;100.00;98405.34;6175182;23;20005;-84
2023/03/10 10:13:11;;;;;;;14.00;4.45;;;;;;;8.63;100.00;98460.13;6150850;23;20493;-85
2023/03/10 10:15:43;;;;;;;13.32;4.25;;;;;;;8.59;100.00;98458.69;6175600;23;20083;-84
2023/03/10 10:18:14;;;;;;;13.98;4.03;;;;;;;8.28;100.00;98414.38;6176136;23;20005;-84
2023/03/10 10:21:13;;;;;;;11.73;3.72;;;;;;;8.50;100.00;98490.44;6175267;23;20009;-84
2023/03/10 10:23:59;;;;;;;12.77;4.20;;;;;;;8.26;100.00;98477.28;6109097;23;20063;-84
2023/03/10 10:26:25;;;;;;;14.73;4.30;;;;;;;7.94;100.00;98438.25;6176333;23;20001;-86
2023/03/10 10:29:12;;;;;;;16.58;3.95;;;;;;;8.09;100.00;98486.53;6175473;23;20222;-85
2023/03/10 10:31:38;;;;;;;13.05;4.25;;;;;;;8.02;100.00;98483.53;6176848;23;20059;-85
2023/03/10 10:34:06;;;;;;;16.17;5.07;;;;;;;7.91;100.00;98471.13;6149612;23;20432;-84
2023/03/10 10:36:33;;;;;;;14.90;4.38;;;;;;;7.96;100.00;98476.06;6175104;23;20013;-85
2023/03/10 10:39:00;;;;;;;14.57;4.35;;;;;;;7.58;100.00;98415.47;6176718;23;20001;-85
2023/03/10 10:41:33;;;;;;;16.35;3.97;;;;;;;8.01;100.00;98483.66;6150960;23;20090;-83
2023/03/10 10:44:07;;;;;;;18.48;4.80;;;;;;;7.65;100.00;98419.31;6177767;23;20008;-85
2023/03/10 10:46:32;;;;;;;20.83;4.90;;;;;;;7.78;100.00;98437.78;6175748;23;20005;-86
2023/03/10 10:49:21;;;;;;;15.15;4.93;;;;;;;7.94;100.00;98475.31;6150654;23;20092;-84
2023/03/10 10:51:56;;;;;;;14.52;5.10;;;;;;;7.85;100.00;98452.22;6160949;23;20005;-86
2023/03/10 10:54:37;;;;;;;12.52;5.10;;;;;;;8.06;100.00;98473.53;6150546;23;20044;-85
2023/03/10 10:57:16;;;;;;;17.10;5.25;;;;;;;7.98;100.00;98444.97;6179163;23;20013;-87
2023/03/10 10:59:41;;;;;;;19.23;5.30;;;;;;;8.12;100.00;98462.47;6164801;23;20016;-87
2023/03/10 11:02:24;;;;;;;18.60;5.10;;;;;;;8.03;100.00;98439.34;6192707;23;20016;-86
2023/03/10 11:04:49;;;;;;;19.08;5.75;;;;;;;8.15;100.00;98448.94;6190900;23;20008;-90
2023/03/10 11:07:26;;;;;;;18.63;5.20;;;;;;;8.20;100.00;98450.28;6176604;23;20091;-87
2023/03/10 11:09:55;;;;;;;18.15;4.82;;;;;;;8.24;100.00;98437.66;6179479;23;20138;-88
2023/03/10 11:12:28;;;;;;;13.23;4.53;;;;;;;8.24;100.00;98450.91;6180441;23;20001;-86
2023/03/10 11:15:24;;;;;;;15.63;4.90;;;;;;;8.30;100.00;98447.75;6200000;23;19997;-86
2023/03/10 11:17:56;;;;;;;17.48;4.60;;;;;;;8.26;100.00;98440.16;6197731;23;19993;-87
2023/03/10 11:20:47;;;;;;;14.70;4.57;;;;;;;8.42;100.00;98449.44;6190006;23;20005;-86
2023/03/10 11:23:28;;;;;;;10.43;4.30;;;;;;;8.37;100.00;98441.03;6180180;23;20021;-86
2023/03/10 11:26:06;;;;;;;13.35;4.28;;;;;;;8.37;100.00;98454.28;6180218;23;20505;-85
2023/03/10 11:28:47;;;;;;;13.18;4.47;;;;;;;8.38;100.00;98436.56;6175936;23;20015;-87
2023/03/10 11:31:40;;;;;;;11.25;3.80;;;;;;;8.44;100.00;98436.94;6181278;23;20025;-85
2023/03/10 11:34:29;;;;;;;8.75;4.38;;;;;;;8.47;100.00;98439.31;6154798;23;20028;-87
2023/03/10 11:37:07;;;;;;;8.98;3.60;;;;;;;8.42;100.00;98432.72;6180184;23;20004;-87
2023/03/10 11:39:57;;;;;;;8.30;3.50;;;;;;;8.38;100.00;98434.75;6179089;23;20005;-87
2023/03/10 11:42:50;;;;;;;6.38;2.95;;;;;;;8.38;100.00;98433.94;6178703;23;20450;-87
2023/03/10 11:45:33;;;;;;;8.35;3.63;;;;;;;8.31;100.00;98424.75;6179461;23;20035;-87
2023/03/10 11:48:24;;;;;;;8.52;4.22;;;;;;;8.41;100.00;98423.91;6180456;23;20051;-85
2023/03/10 11:50:59;;;;;;;10.13;4.60;;;;;;;8.42;100.00;98424.75;6179163;23;20347;-86
2023/03/10 11:53:33;;;;;;;8.35;5.05;;;;;;;8.46;100.00;98424.38;6179737;23;20015;-86
2023/03/10 11:56:00;;;;;;;7.03;5.13;;;;;;;8.38;100.00;98421.50;6181147;23;20009;-86
2023/03/10 11:58:50;;;;;;;6.78;4.43;;;;;;;8.40;100.00;98414.28;6161521;23;20072;-86
2023/03/10 12:01:41;;;;;;;5.65;4.45;;;;;;;8.38;100.00;98410.91;6186654;23;20020;-87
2023/03/10 12:04:28;;;;;;;6.25;4.55;;;;;;;8.35;100.00;98413.75;6187384;23;20327;-86
2023/03/10 12:06:59;;;;;;;7.35;5.07;;;;;;;8.39;100.00;98409.94;6186251;23;20079;-87
2023/03/10 12:09:36;;;;;;;6.47;5.88;;;;;;;8.48;100.00;98419.81;6154425;23;20001;-86
2023/03/10 12:12:04;;;;;;;7.43;5.90;;;;;;;8.44;100.00;98414.84;6179616;23;20009;-86
2023/03/10 12:14:31;;;;;;;6.15;5.55;;;;;;;8.24;100.00;98382.84;6177337;23;20001;-89
2023/03/10 12:16:57;;;;;;;6.50;5.90;;;;;;;8.30;100.00;98400.03;6177623;23;20009;-86
2023/03/10 12:19:22;;;;;;;7.00;5.80;;;;;;;8.28;100.00;98388.75;6177620;23;20465;-86
2023/03/10 12:22:23;;;;;;;6.80;6.07;;;;;;;8.45;100.00;98406.81;6178028;23;20341;-84
2023/03/10 12:24:49;;;;;;;6.75;6.03;;;;;;;8.47;100.00;98404.84;6057200;23;20007;-86
2023/03/10 12:27:15;;;;;;;6.97;6.05;;;;;;;8.57;100.00;98398.81;6058215;23;20014;-86
2023/03/10 12:29:42;;;;;;;6.70;5.78;;;;;;;8.64;100.00;98384.91;6057810;23;20382;-87
2023/03/10 12:32:37;;;;;;;6.00;5.50;;;;;;;8.67;100.00;98389.97;6060554;23;20464;-88
2023/03/10 12:35:35;;;;;;;5.80;5.30;;;;;;;8.65;100.00;98388.41;6059089;23;20015;-88
2023/03/10 12:38:28;;;;;;;4.68;4.28;;;;;;;8.59;100.00;98381.81;6057633;23;20222;-87
2023/03/10 12:40:54;;;;;;;5.22;4.13;;;;;;;8.50;100.00;98387.03;6059627;23;20006;-88
2023/03/10 12:44:11;;;;;;;4.50;3.83;;;;;;;8.55;100.00;98395.44;6057819;23;20584;-86
2023/03/10 12:46:46;;;;;;;4.45;4.05;;;;;;;8.41;100.00;98376.22;6023855;23;20422;-85
2023/03/10 12:49:23;;;;;;;4.30;3.95;;;;;;;8.56;100.00;98399.78;5998919;23;20016;-87
2023/03/10 12:51:58;;;;;;;4.85;4.25;;;;;;;8.49;100.00;98396.78;5999808;23;20055;-87
2023/03/10 12:54:41;;;;;;;4.80;4.40;;;;;;;8.53;100.00;98394.72;5998491;23;20048;-86
2023/03/10 12:57:11;;;;;;;5.88;4.90;;;;;;;8.53;100.00;98390.28;6000627;23;20450;-87
2023/03/10 13:00:05;;;;;;;6.30;5.22;;;;;;;8.45;100.00;98364.38;6094310;23;20065;-84
2023/03/10 13:02:37;;;;;;;7.00;6.20;;;;;;;8.53;100.00;98370.84;6114270;23;20006;-84
2023/03/10 13:05:06;;;;;;;7.00;6.30;;;;;;;8.52;100.00;98359.41;6090020;23;20032;-86
2023/03/10 13:07:33;;;;;;;6.45;5.75;;;;;;;8.52;100.00;98358.56;6116686;23;20021;-86
2023/03/10 13:10:02;;;;;;;6.35;5.75;;;;;;;8.47;100.00;98351.00;6116194;23;20013;-86
2023/03/10 13:12:41;;;;;;;8.65;7.25;;;;;;;8.57;100.00;98357.25;6092959;23;20010;-88
2023/03/10 13:15:27;;;;;;;8.52;7.28;;;;;;;8.53;100.00;98371.72;6127840;23;20030;-86
2023/03/10 13:17:55;;;;;;;11.60;10.38;;;;;;;8.45;100.00;98380.28;6128210;23;20010;-85
2023/03/10 13:20:21;;;;;;;12.18;10.90;;;;;;;8.50;100.00;98395.81;6106580;23;20314;-84
2023/03/10 13:22:56;;;;;;;13.85;11.38;;;;;;;8.37;100.00;98380.06;6147966;23;20019;-87
2023/03/10 13:25:21;;;;;;;14.00;12.48;;;;;;;8.31;100.00;98369.91;6177565;23;20001;-85
2023/03/10 13:27:47;;;;;;;15.18;13.30;;;;;;;8.32;100.00;98376.06;6178612;23;20048;-87
2023/03/10 13:30:21;;;;;;;15.50;12.75;;;;;;;8.31;100.00;98388.47;6195619;23;20427;-84
2023/03/10 13:32:57;;;;;;;17.48;14.48;;;;;;;8.40;100.00;98390.44;6192520;23;20009;-83
2023/03/10 13:35:34;;;;;;;16.55;14.90;;;;;;;8.42;100.00;98406.19;6194877;23;20040;-85
2023/03/10 13:38:19;;;;;;;19.33;16.20;;;;;;;8.25;100.00;98396.94;6181011;23;20012;-86
2023/03/10 13:41:01;;;;;;;18.05;16.08;;;;;;;8.30;100.00;98429.19;6178928;23;20005;-88
2023/03/10 13:43:32;;;;;;;16.25;14.55;;;;;;;8.17;100.00;98447.88;6148831;23;20005;-86
2023/03/10 13:45:59;;;;;;;14.00;11.43;;;;;;;8.07;100.00;98444.28;6178163;23;20013;-87
2023/03/10 13:48:26;;;;;;;12.65;11.20;;;;;;;7.96;100.00;98449.56;6179555;23;20005;-87
2023/03/10 13:51:19;;;;;;;14.10;10.77;;;;;;;7.95;100.00;98454.03;6179506;23;20005;-86
2023/03/10 13:53:46;;;;;;;14.57;11.20;;;;;;;7.86;100.00;98457.41;6152090;23;20009;-88